.
WxDataArchive / Data Records for 2008-03-02
2008-03-01 March 2008 2008-03-03

Data Records for Sunday, 02 March 2008

Time	Temp	Chill	HIndex	Humid	Dewpt	 Wind 	HiWind	WindDir	Rain 	Barom 
-----	----	-----	------	-----	-----	------	------	-------	-----	----- 
00:00	27.9	27.9	27.9	79	22.2	0	1	135	0.00	30.184 
00:05	27.9	27.9	27.9	79	22.2	0	1	135	0.00	30.182 
00:10	28.1	28.1	28.1	79	22.4	0	1	135	0.00	30.183 
00:15	28.2	28.2	28.2	78	22.2	1	2	135	0.00	30.181 
00:20	28.5	28.5	28.5	78	22.5	1	3	68	0.00	30.177 
00:25	28.7	28.7	28.7	77	22.4	1	4	68	0.00	30.178 
00:30	28.8	28.8	28.8	77	22.5	2	5	112	0.00	30.176 
00:35	29.0	29.0	29.0	76	22.4	2	3	112	0.00	30.175 
00:40	29.1	29.1	29.1	76	22.5	2	5	90	0.00	30.174 
00:45	29.3	29.3	29.3	75	22.4	2	4	112	0.00	30.173 
00:50	29.3	29.3	29.3	75	22.4	1	4	112	0.00	30.174 
00:55	29.3	29.3	29.3	74	22.1	2	5	112	0.00	30.172 
01:00	29.4	29.4	29.4	74	22.2	2	3	112	0.00	30.171 
01:05	29.4	29.4	29.4	73	21.8	2	4	112	0.00	30.170 
01:10	29.4	29.4	29.4	73	21.8	2	5	112	0.00	30.169 
01:15	29.5	29.5	29.5	73	21.9	2	4	112	0.00	30.168 
01:20	29.5	29.5	29.5	73	21.9	2	4	112	0.00	30.161 
01:25	29.5	29.5	29.5	73	21.9	2	4	112	0.00	30.157 
01:30	29.7	29.7	29.7	74	22.4	2	4	112	0.00	30.157 
01:35	29.8	29.8	29.8	74	22.5	2	4	112	0.00	30.156 
01:40	29.8	29.8	29.8	74	22.5	2	4	112	0.00	30.155 
01:45	30.0	30.0	30.0	74	22.7	3	5	112	0.00	30.156 
01:50	30.0	30.0	30.0	75	23.1	2	5	90	0.00	30.155 
01:55	30.0	30.0	30.0	75	23.1	2	4	90	0.00	30.154 
02:00	30.0	30.0	30.0	76	23.4	2	5	90	0.00	30.156 
02:05	30.0	30.0	30.0	76	23.4	2	6	90	0.00	30.156 
02:10	30.1	30.1	30.1	76	23.5	2	4	90	0.00	30.156 
02:15	30.1	30.1	30.1	77	23.8	2	5	90	0.00	30.155 
02:20	30.1	30.1	30.1	77	23.8	2	4	112	0.00	30.155 
02:25	30.0	30.0	30.0	77	23.7	2	4	112	0.00	30.155 
02:30	30.0	30.0	30.0	77	23.7	2	4	90	0.00	30.156 
02:35	30.0	30.0	30.0	78	24.0	2	3	90	0.00	30.152 
02:40	30.0	30.0	30.0	78	24.0	2	5	90	0.00	30.149 
02:45	30.0	30.0	30.0	78	24.0	2	4	112	0.00	30.152 
02:50	30.0	30.0	30.0	78	24.0	3	7	90	0.00	30.147 
02:55	30.0	30.0	30.0	78	24.0	3	5	112	0.00	30.148 
03:00	30.0	30.0	30.0	78	24.0	3	5	112	0.00	30.146 
03:05	30.0	30.0	30.0	78	24.0	2	5	90	0.00	30.144 
03:10	30.0	30.0	30.0	79	24.3	2	5	112	0.00	30.141 
03:15	30.0	30.0	30.0	79	24.3	3	5	90	0.00	30.140 
03:20	29.8	29.8	29.8	79	24.1	3	5	90	0.00	30.139 
03:25	29.8	29.8	29.8	79	24.1	3	6	112	0.00	30.139 
03:30	29.8	29.8	29.8	79	24.1	3	5	112	0.00	30.138 
03:35	29.8	29.8	29.8	79	24.1	3	6	112	0.00	30.138 
03:40	29.8	29.8	29.8	79	24.1	3	5	112	0.00	30.134 
03:45	29.8	29.8	29.8	80	24.4	2	5	112	0.00	30.129 
03:50	29.8	29.8	29.8	80	24.4	3	6	112	0.00	30.128 
03:55	29.8	29.8	29.8	80	24.4	2	5	112	0.00	30.128 
04:00	29.8	29.8	29.8	80	24.4	3	6	90	0.00	30.128 
04:05	29.8	29.8	29.8	80	24.4	2	4	112	0.00	30.127 
04:10	29.8	29.8	29.8	80	24.4	3	5	112	0.00	30.127 
04:15	29.8	29.8	29.8	80	24.4	3	5	112	0.00	30.127 
04:20	29.8	29.8	29.8	80	24.4	3	5	112	0.00	30.126 
04:25	29.8	29.8	29.8	80	24.4	3	6	112	0.00	30.125 
04:30	29.8	29.8	29.8	80	24.4	3	6	112	0.00	30.123 
04:35	29.8	29.8	29.8	80	24.4	3	7	112	0.00	30.123 
04:40	29.8	29.8	29.8	80	24.4	3	7	90	0.00	30.124 
04:45	29.8	29.8	29.8	80	24.4	3	7	90	0.00	30.124 
04:50	30.0	25.8	30.0	80	24.6	4	7	112	0.00	30.121 
04:55	30.0	25.8	30.0	80	24.6	4	9	112	0.00	30.115 
05:00	30.0	25.8	30.0	80	24.6	4	7	112	0.00	30.113 
05:05	30.0	30.0	30.0	80	24.6	3	7	112	0.00	30.112 
05:10	30.0	25.8	30.0	80	24.6	4	9	112	0.00	30.110 
05:15	30.0	25.8	30.0	80	24.6	4	7	112	0.00	30.112 
05:20	30.0	25.8	30.0	80	24.6	4	9	90	0.00	30.111 
05:25	30.0	30.0	30.0	80	24.6	3	7	112	0.00	30.110 
05:30	29.8	29.8	29.8	80	24.4	3	6	112	0.00	30.108 
05:35	29.8	29.8	29.8	81	24.7	3	5	112	0.00	30.108 
05:40	29.8	29.8	29.8	81	24.7	3	6	112	0.00	30.106 
05:45	29.8	29.8	29.8	81	24.7	3	9	112	0.00	30.107 
05:50	29.8	29.8	29.8	81	24.7	3	5	112	0.00	30.109 
05:55	29.8	29.8	29.8	80	24.4	3	5	112	0.00	30.109 
06:00	29.8	29.8	29.8	80	24.4	3	6	112	0.00	30.109 
06:05	29.8	29.8	29.8	80	24.4	2	6	112	0.00	30.109 
06:10	29.8	29.8	29.8	80	24.4	3	6	112	0.00	30.109 
06:15	29.8	29.8	29.8	80	24.4	3	7	112	0.00	30.109 
06:20	29.8	29.8	29.8	80	24.4	3	5	112	0.00	30.108 
06:25	29.8	29.8	29.8	80	24.4	3	5	112	0.00	30.107 
06:30	29.8	29.8	29.8	80	24.4	3	5	112	0.00	30.105 
06:35	29.8	29.8	29.8	80	24.4	2	4	112	0.00	30.106 
06:40	29.8	29.8	29.8	80	24.4	2	4	112	0.00	30.105 
06:45	29.8	29.8	29.8	79	24.1	3	6	112	0.00	30.103 
06:50	29.8	29.8	29.8	79	24.1	2	5	112	0.00	30.103 
06:55	29.8	29.8	29.8	79	24.1	3	5	112	0.00	30.098 
07:00	29.8	29.8	29.8	79	24.1	2	6	112	0.00	30.098 
07:05	29.8	29.8	29.8	78	23.8	2	6	112	0.00	30.098 
07:10	29.8	29.8	29.8	78	23.8	2	4	112	0.00	30.096 
07:15	29.7	29.7	29.7	78	23.7	2	5	90	0.00	30.095 
07:20	29.7	29.7	29.7	78	23.7	2	5	112	0.00	30.094 
07:25	29.5	29.5	29.5	79	23.8	2	4	112	0.00	30.094 
07:30	29.4	29.4	29.4	79	23.7	3	6	90	0.00	30.094 
07:35	29.4	29.4	29.4	79	23.7	2	7	112	0.00	30.092 
07:40	29.3	29.3	29.3	79	23.6	3	5	112	0.00	30.092 
07:45	29.3	29.3	29.3	79	23.6	3	6	112	0.00	30.094 
07:50	29.3	29.3	29.3	79	23.6	3	6	112	0.00	30.095 
07:55	29.1	29.1	29.1	79	23.4	3	5	112	0.00	30.093 
08:00	29.1	29.1	29.1	79	23.4	2	5	112	0.00	30.094 
08:05	29.3	29.3	29.3	79	23.6	3	5	112	0.00	30.093 
08:10	29.5	29.5	29.5	79	23.8	2	6	112	0.00	30.091 
08:15	29.8	29.8	29.8	78	23.8	2	4	112	0.00	30.093 
08:20	30.0	30.0	30.0	77	23.7	2	5	112	0.00	30.093 
08:25	30.3	30.3	30.3	77	24.0	3	5	112	0.00	30.092 
08:30	30.4	30.4	30.4	77	24.1	3	6	112	0.00	30.088 
08:35	30.6	30.6	30.6	76	24.0	3	6	112	0.00	30.087 
08:40	30.7	30.7	30.7	76	24.0	3	6	112	0.00	30.084 
08:45	31.2	31.2	31.2	75	24.2	3	9	112	0.00	30.081 
08:50	31.6	31.6	31.6	74	24.3	2	6	112	0.00	30.079 
08:55	31.9	31.9	31.9	73	24.2	3	6	112	0.00	30.078 
09:00	32.2	32.2	32.2	73	24.5	2	6	112	0.00	30.080 
09:05	32.4	28.5	32.4	72	24.4	4	9	112	0.00	30.080 
09:10	32.8	32.8	32.8	72	24.8	3	5	90	0.00	30.078 
09:15	33.1	33.1	33.1	72	25.1	3	6	112	0.00	30.076 
09:20	33.4	29.7	33.4	70	24.7	4	9	112	0.00	30.075 
09:25	33.7	33.7	33.7	70	25.0	3	6	112	0.00	30.072 
09:30	34.1	34.1	34.1	70	25.4	3	6	112	0.00	30.072 
09:35	34.3	34.3	34.3	70	25.5	2	6	112	0.00	30.072 
09:40	34.3	34.3	34.3	70	25.5	3	8	112	0.00	30.070 
09:45	34.4	34.4	34.4	70	25.6	3	7	112	0.00	30.066 
09:50	34.9	34.9	34.9	70	26.1	2	5	112	0.00	30.062 
09:55	35.3	35.3	35.3	69	26.2	2	6	112	0.00	30.062 
10:00	35.6	35.6	35.6	69	26.4	3	7	112	0.00	30.061 
10:05	36.2	36.2	36.2	68	26.7	3	8	112	0.00	30.063 
10:10	36.8	36.8	36.8	67	26.9	3	6	112	0.00	30.061 
10:15	37.0	37.0	37.0	66	26.7	3	6	112	0.00	30.061 
10:20	37.5	37.5	37.5	66	27.2	2	5	112	0.00	30.062 
10:25	37.8	37.8	37.8	65	27.1	2	6	112	0.00	30.059 
10:30	37.8	37.8	37.8	66	27.5	2	6	112	0.00	30.059 
10:35	37.8	37.8	37.8	66	27.5	2	5	112	0.00	30.055 
10:40	38.0	38.0	38.0	65	27.3	2	5	112	0.00	30.054 
10:45	38.6	38.6	38.6	65	27.9	2	5	112	0.00	30.049 
10:50	39.2	39.2	39.2	63	27.7	3	7	112	0.00	30.046 
10:55	39.6	36.9	39.6	62	27.7	4	9	112	0.00	30.042 
11:00	40.1	40.1	40.1	62	28.1	2	6	112	0.00	30.042 
11:05	40.1	40.1	40.1	62	28.1	2	7	112	0.00	30.041 
11:10	40.5	40.5	40.5	62	28.5	2	5	112	0.00	30.039 
11:15	40.9	40.9	40.9	60	28.1	3	9	135	0.00	30.041 
11:20	40.8	40.8	40.8	61	28.4	2	5	112	0.00	30.041 
11:25	41.2	41.2	41.2	60	28.4	2	6	112	0.00	30.041 
11:30	41.2	41.2	41.2	60	28.4	2	6	112	0.00	30.036 
11:35	41.2	41.2	41.2	60	28.4	2	5	112	0.00	30.034 
11:40	41.2	41.2	41.2	60	28.4	2	7	112	0.00	30.027 
11:45	41.3	41.3	41.3	60	28.5	3	6	112	0.00	30.026 
11:50	41.6	41.6	41.6	60	28.8	2	5	112	0.00	30.024 
11:55	42.1	42.1	42.1	59	28.8	2	7	112	0.00	30.023 
12:00	42.3	42.3	42.3	58	28.6	1	5	135	0.00	30.022 
12:05	42.6	42.6	42.6	58	28.9	1	5	112	0.00	30.015 
12:10	43.1	43.1	43.1	57	28.9	2	4	112	0.00	30.015 
12:15	42.8	42.8	42.8	58	29.1	3	9	112	0.00	30.008 
12:20	42.8	42.8	42.8	58	29.1	2	6	112	0.00	30.007 
12:25	43.1	43.1	43.1	57	28.9	1	4	135	0.00	30.005 
12:30	43.3	43.3	43.3	57	29.1	2	5	135	0.00	29.996 
12:35	43.2	43.2	43.2	57	29.0	2	4	135	0.00	29.992 
12:40	43.3	43.3	43.3	57	29.1	1	4	135	0.00	29.990 
12:45	43.2	43.2	43.2	58	29.4	2	5	112	0.00	29.989 
12:50	43.3	43.3	43.3	57	29.1	2	6	112	0.00	29.987 
12:55	43.6	43.6	43.6	57	29.4	3	6	112	0.00	29.980 
13:00	43.8	43.8	43.8	57	29.6	2	4	112	0.00	29.977 
13:05	44.2	44.2	44.2	56	29.5	2	4	112	0.00	29.975 
13:10	44.5	44.5	44.5	56	29.8	2	5	112	0.00	29.973 
13:15	44.3	44.3	44.3	56	29.6	2	7	112	0.00	29.972 
13:20	44.5	44.5	44.5	56	29.8	2	5	112	0.00	29.972 
13:25	44.8	44.8	44.8	56	30.1	1	4	112	0.00	29.967 
13:30	45.1	45.1	45.1	56	30.4	1	3	112	0.00	29.962 
13:35	45.2	45.2	45.2	56	30.4	1	3	90	0.00	29.960 
13:40	45.2	45.2	45.2	56	30.4	2	3	90	0.00	29.956 
13:45	45.4	45.4	45.4	56	30.6	1	3	112	0.00	29.956 
13:50	45.2	45.2	45.2	57	30.9	1	3	112	0.00	29.954 
13:55	45.1	45.1	45.1	56	30.4	2	4	90	0.00	29.948 
14:00	44.9	44.9	44.9	57	30.6	1	4	90	0.00	29.942 
14:05	44.8	44.8	44.8	57	30.5	2	5	112	0.00	29.942 
14:10	44.8	44.8	44.8	58	30.9	2	4	112	0.00	29.939 
14:15	44.9	44.9	44.9	58	31.0	2	5	112	0.00	29.930 
14:20	44.9	44.9	44.9	58	31.0	2	5	112	0.00	29.930 
14:25	45.2	45.2	45.2	57	30.9	1	4	112	0.00	29.929 
14:30	45.2	45.2	45.2	58	31.3	1	5	90	0.00	29.926 
14:35	45.4	45.4	45.4	57	31.1	1	4	112	0.00	29.925 
14:40	45.5	45.5	45.5	57	31.2	1	4	112	0.00	29.921 
14:45	45.5	45.5	45.5	57	31.2	2	5	112	0.00	29.919 
14:50	45.4	45.4	45.4	57	31.1	1	4	135	0.00	29.923 
14:55	45.4	45.4	45.4	58	31.5	1	3	112	0.00	29.923 
15:00	45.4	45.4	45.4	58	31.5	1	2	90	0.00	29.923 
15:05	45.2	45.2	45.2	58	31.3	1	2	90	0.00	29.921 
15:10	44.9	44.9	44.9	59	31.5	2	4	112	0.00	29.919 
15:15	44.9	44.9	44.9	59	31.5	1	4	112	0.00	29.918 
15:20	44.9	44.9	44.9	59	31.5	1	4	112	0.00	29.917 
15:25	44.9	44.9	44.9	59	31.5	0	2	112	0.00	29.920 
15:30	44.9	44.9	44.9	60	31.9	1	3	112	0.00	29.913 
15:35	44.9	44.9	44.9	60	31.9	1	3	112	0.00	29.911 
15:40	45.1	45.1	45.1	60	32.1	1	3	112	0.00	29.911 
15:45	45.2	45.2	45.2	60	32.1	1	3	112	0.00	29.908 
15:50	45.1	45.1	45.1	61	32.5	2	4	90	0.00	29.906 
15:55	44.9	44.9	44.9	61	32.3	2	4	90	0.00	29.904 
16:00	44.8	44.8	44.8	62	32.6	1	3	90	0.00	29.899 
16:05	44.8	44.8	44.8	62	32.6	1	2	90	0.00	29.900 
16:10	44.8	44.8	44.8	62	32.6	1	2	90	0.00	29.895 
16:15	44.9	44.9	44.9	62	32.7	0	2	90	0.00	29.892 
16:20	45.1	45.1	45.1	62	32.9	0	1	90	0.00	29.893 
16:25	45.4	45.4	45.4	62	33.2	1	2	90	0.00	29.892 
16:30	45.4	45.4	45.4	62	33.2	0	2	135	0.00	29.889 
16:35	45.2	45.2	45.2	63	33.4	1	3	135	0.00	29.888 
16:40	45.2	45.2	45.2	63	33.4	1	2	135	0.00	29.886 
16:45	45.1	45.1	45.1	63	33.3	0	1	135	0.00	29.891 
16:50	44.9	44.9	44.9	64	33.5	1	2	135	0.00	29.889 
16:55	44.6	44.6	44.6	65	33.6	1	2	135	0.00	29.887 
17:00	44.3	44.3	44.3	66	33.7	1	3	90	0.00	29.884 
17:05	44.1	44.1	44.1	66	33.5	0	2	90	0.00	29.887 
17:10	43.8	43.8	43.8	67	33.6	1	3	90	0.00	29.885 
17:15	43.5	43.5	43.5	67	33.3	2	4	90	0.00	29.879 
17:20	43.3	43.3	43.3	68	33.5	2	3	90	0.00	29.881 
17:25	43.2	43.2	43.2	68	33.4	2	3	90	0.00	29.879 
17:30	43.2	43.2	43.2	68	33.4	2	3	90	0.00	29.880 
17:35	43.1	43.1	43.1	69	33.6	1	3	68	0.00	29.879 
17:40	43.1	43.1	43.1	69	33.6	1	3	112	0.00	29.879 
17:45	43.1	43.1	43.1	70	34.0	1	3	112	0.00	29.879 
17:50	42.9	42.9	42.9	70	33.8	1	2	112	0.00	29.879 
17:55	42.9	42.9	42.9	70	33.8	1	3	112	0.00	29.879 
18:00	42.8	42.8	42.8	70	33.7	1	2	112	0.00	29.879 
18:05	42.6	42.6	42.6	71	33.9	1	3	112	0.00	29.879 
18:10	42.5	42.5	42.5	72	34.1	1	2	112	0.00	29.880 
18:15	42.5	42.5	42.5	72	34.1	1	2	112	0.00	29.879 
18:20	42.3	42.3	42.3	72	33.9	1	2	112	0.00	29.879 
18:25	42.1	42.1	42.1	73	34.1	1	1	112	0.00	29.879 
18:30	41.8	41.8	41.8	73	33.8	1	2	112	0.00	29.879 
18:35	41.5	41.5	41.5	74	33.8	0	2	112	0.00	29.879 
18:40	41.2	41.2	41.2	75	33.9	0	2	112	0.00	29.881 
18:45	41.1	41.1	41.1	76	34.1	0	1	112	0.00	29.880 
18:50	40.8	40.8	40.8	76	33.8	0	1	112	0.00	29.881 
18:55	40.6	40.6	40.6	77	34.0	0	1	112	0.00	29.881 
19:00	40.5	40.5	40.5	77	33.9	0	1	112	0.00	29.881 
19:05	40.2	40.2	40.2	78	33.9	0	1	112	0.00	29.882 
19:10	39.9	39.9	39.9	79	33.9	0	1	112	0.00	29.882 
19:15	39.8	39.8	39.8	80	34.1	0	1	112	0.00	29.882 
19:20	39.6	39.6	39.6	81	34.3	0	1	112	0.00	29.881 
19:25	39.8	39.8	39.8	82	34.8	0	1	112	0.00	29.880 
19:30	40.1	40.1	40.1	84	35.7	0	1	112	0.00	29.880 
19:35	40.3	40.3	40.3	84	35.9	0	1	112	0.00	29.878 
19:40	40.9	40.9	40.9	85	36.7	0	1	112	0.00	29.876 
19:45	41.6	41.6	41.6	86	37.7	0	2	112	0.00	29.874 
19:50	42.2	42.2	42.2	86	38.3	0	3	112	0.00	29.872 
19:55	42.9	42.9	42.9	87	39.3	1	3	112	0.00	29.870 
20:00	43.5	43.5	43.5	86	39.6	1	3	135	0.00	29.867 
20:05	43.9	43.9	43.9	86	40.0	1	3	112	0.00	29.863 
20:10	44.3	44.3	44.3	86	40.4	1	4	112	0.00	29.863 
20:15	44.8	44.8	44.8	86	40.9	2	5	112	0.00	29.860 
20:20	45.4	45.4	45.4	85	41.2	2	6	135	0.00	29.861 
20:25	45.7	45.7	45.7	84	41.1	2	6	112	0.00	29.858 
20:30	46.1	46.1	46.1	84	41.5	2	5	112	0.00	29.858 
20:35	46.4	46.4	46.4	83	41.5	1	5	68	0.00	29.860 
20:40	46.4	46.4	46.4	83	41.5	1	3	135	0.00	29.861 
20:45	46.4	46.4	46.4	83	41.5	1	4	135	0.00	29.860 
20:50	46.7	46.7	46.7	83	41.8	2	9	90	0.00	29.858 
20:55	46.8	46.8	46.8	83	41.9	1	4	90	0.00	29.856 
21:00	47.0	47.0	47.0	83	42.1	1	4	112	0.00	29.855 
21:05	47.1	47.1	47.1	82	41.9	2	5	90	0.00	29.855 
21:10	47.4	47.4	47.4	82	42.2	2	5	90	0.00	29.854 
21:15	47.6	47.6	47.6	82	42.4	3	7	90	0.00	29.852 
21:20	47.3	47.3	47.3	81	41.8	1	6	0	0.00	29.856 
21:25	47.0	47.0	47.0	81	41.5	1	4	0	0.00	29.859 
21:30	46.7	46.7	46.7	82	41.5	1	5	68	0.00	29.856 
21:35	46.7	46.7	46.7	83	41.8	2	6	135	0.00	29.857 
21:40	46.5	46.5	46.5	83	41.6	1	3	90	0.00	29.855 
21:45	46.5	46.5	46.5	83	41.6	2	3	90	0.00	29.854 
21:50	46.5	46.5	46.5	83	41.6	1	2	112	0.00	29.854 
21:55	46.7	46.7	46.7	84	42.1	1	4	68	0.00	29.853 
22:00	46.7	46.7	46.7	83	41.8	1	3	112	0.00	29.853 
22:05	46.8	46.8	46.8	83	41.9	1	5	90	0.00	29.850 
22:10	47.0	47.0	47.0	83	42.1	1	5	45	0.00	29.851 
22:15	47.4	47.4	47.4	82	42.2	2	4	90	0.00	29.851 
22:20	47.4	47.4	47.4	82	42.2	1	3	90	0.00	29.852 
22:25	47.7	47.7	47.7	82	42.5	2	7	45	0.00	29.849 
22:30	48.0	48.0	48.0	81	42.5	2	5	68	0.00	29.850 
22:35	48.0	48.0	48.0	81	42.5	1	4	112	0.00	29.850 
22:40	48.3	48.3	48.3	81	42.7	1	4	292	0.00	29.849 
22:45	48.6	48.6	48.6	81	43.0	1	4	292	0.00	29.849 
22:50	48.8	48.8	48.8	80	42.9	1	3	315	0.00	29.850 
22:55	48.8	48.8	48.8	80	42.9	1	7	68	0.00	29.848 
23:00	49.1	49.1	49.1	80	43.2	2	7	90	0.00	29.848 
23:05	49.2	49.2	49.2	79	43.0	2	4	112	0.00	29.846 
23:10	49.2	49.2	49.2	79	43.0	1	3	68	0.00	29.844 
23:15	49.4	49.4	49.4	79	43.2	2	7	90	0.00	29.842 
23:20	49.4	49.4	49.4	79	43.2	2	4	90	0.00	29.842 
23:25	49.5	49.5	49.5	78	42.9	2	4	90	0.00	29.839 
23:30	49.5	49.5	49.5	78	42.9	1	3	90	0.00	29.837 
23:35	49.6	49.6	49.6	78	43.0	1	4	90	0.00	29.836 
23:40	49.8	49.8	49.8	78	43.2	1	3	90	0.00	29.834 
23:45	50.1	50.1	50.1	78	43.5	2	5	90	0.00	29.831 
23:50	50.4	50.4	50.4	77	43.5	2	5	90	0.00	29.829 
23:55	50.5	50.5	50.5	76	43.2	2	5	90	0.00	29.827 

CoCoRaHS
IN-AL-39
A2 Web Hosting
Creative Commons License
GoDaddy
Look for:

loaded 2017-12-12 07:01:11 • last modified 2010-11-18 10:43:29
Privacy PolicyDisclaimer
• wx.awcolley.com is powered by PmWiki v.2002016 •
• all content (unless otherwise noted) © 2017 A W Colley